sensor_id;sensor_type;location;lat;lon;timestamp;temperature;humidity
67165;SHT31;54093;50.014;19.984;2023-07-31T00:06:12;18.96;71.71
67165;SHT31;54093;50.014;19.984;2023-07-31T00:15:32;18.98;71.68
67165;SHT31;54093;50.014;19.984;2023-07-31T00:24:53;18.89;71.93
67165;SHT31;54093;50.014;19.984;2023-07-31T00:34:14;18.78;72.52
67165;SHT31;54093;50.014;19.984;2023-07-31T00:43:35;18.58;72.92
67165;SHT31;54093;50.014;19.984;2023-07-31T00:52:56;18.50;73.20
67165;SHT31;54093;50.014;19.984;2023-07-31T01:02:17;18.43;73.47
67165;SHT31;54093;50.014;19.984;2023-07-31T01:11:45;18.41;73.42
67165;SHT31;54093;50.014;19.984;2023-07-31T01:30:55;18.39;73.98
67165;SHT31;54093;50.014;19.984;2023-07-31T01:40:18;18.36;74.35
67165;SHT31;54093;50.014;19.984;2023-07-31T01:49:39;18.43;74.46
67165;SHT31;54093;50.014;19.984;2023-07-31T01:59:00;18.48;74.69
67165;SHT31;54093;50.014;19.984;2023-07-31T02:08:21;18.37;75.04
67165;SHT31;54093;50.014;19.984;2023-07-31T02:17:41;18.32;75.69
67165;SHT31;54093;50.014;19.984;2023-07-31T02:27:03;18.30;75.84
67165;SHT31;54093;50.014;19.984;2023-07-31T02:36:24;18.43;75.31
67165;SHT31;54093;50.014;19.984;2023-07-31T02:45:44;18.40;75.57
67165;SHT31;54093;50.014;19.984;2023-07-31T02:55:06;18.43;75.26
67165;SHT31;54093;50.014;19.984;2023-07-31T03:04:27;18.43;74.71
67165;SHT31;54093;50.014;19.984;2023-07-31T03:13:48;18.41;74.50
67165;SHT31;54093;50.014;19.984;2023-07-31T03:23:08;18.41;74.10
67165;SHT31;54093;50.014;19.984;2023-07-31T03:32:29;18.30;74.33
67165;SHT31;54093;50.014;19.984;2023-07-31T03:41:50;18.29;74.14
67165;SHT31;54093;50.014;19.984;2023-07-31T03:51:11;18.16;74.66
67165;SHT31;54093;50.014;19.984;2023-07-31T04:00:32;18.16;74.92
67165;SHT31;54093;50.014;19.984;2023-07-31T04:09:52;18.20;74.74
67165;SHT31;54093;50.014;19.984;2023-07-31T04:19:13;18.19;74.87
67165;SHT31;54093;50.014;19.984;2023-07-31T04:28:37;18.23;74.52
67165;SHT31;54093;50.014;19.984;2023-07-31T04:37:57;18.26;74.51
67165;SHT31;54093;50.014;19.984;2023-07-31T04:47:19;18.39;74.56
67165;SHT31;54093;50.014;19.984;2023-07-31T04:56:40;18.39;74.15
67165;SHT31;54093;50.014;19.984;2023-07-31T05:06:01;18.37;74.36
67165;SHT31;54093;50.014;19.984;2023-07-31T05:15:23;18.41;74.00
67165;SHT31;54093;50.014;19.984;2023-07-31T05:24:44;18.34;74.15
67165;SHT31;54093;50.014;19.984;2023-07-31T05:34:04;18.29;74.08
67165;SHT31;54093;50.014;19.984;2023-07-31T05:43:25;18.37;73.45
67165;SHT31;54093;50.014;19.984;2023-07-31T05:52:46;18.39;73.82
67165;SHT31;54093;50.014;19.984;2023-07-31T06:02:07;18.51;72.99
67165;SHT31;54093;50.014;19.984;2023-07-31T06:11:28;18.51;73.20
67165;SHT31;54093;50.014;19.984;2023-07-31T06:20:49;18.69;72.64
67165;SHT31;54093;50.014;19.984;2023-07-31T06:30:14;18.65;72.76
67165;SHT31;54093;50.014;19.984;2023-07-31T06:39:35;18.64;72.47
67165;SHT31;54093;50.014;19.984;2023-07-31T06:48:55;18.65;73.11
67165;SHT31;54093;50.014;19.984;2023-07-31T06:58:16;18.71;72.57
67165;SHT31;54093;50.014;19.984;2023-07-31T07:07:37;18.84;70.90
67165;SHT31;54093;50.014;19.984;2023-07-31T07:16:58;18.91;71.16
67165;SHT31;54093;50.014;19.984;2023-07-31T07:26:19;19.09;70.97
67165;SHT31;54093;50.014;19.984;2023-07-31T07:35:40;19.30;70.32
67165;SHT31;54093;50.014;19.984;2023-07-31T07:45:01;19.32;70.54
67165;SHT31;54093;50.014;19.984;2023-07-31T07:54:22;19.37;69.67
67165;SHT31;54093;50.014;19.984;2023-07-31T08:03:44;19.42;69.14
67165;SHT31;54093;50.014;19.984;2023-07-31T08:13:04;19.46;69.65
67165;SHT31;54093;50.014;19.984;2023-07-31T08:22:25;19.46;68.92
67165;SHT31;54093;50.014;19.984;2023-07-31T08:31:46;19.52;68.43
67165;SHT31;54093;50.014;19.984;2023-07-31T08:41:07;19.66;68.56
67165;SHT31;54093;50.014;19.984;2023-07-31T08:50:28;19.77;68.78
67165;SHT31;54093;50.014;19.984;2023-07-31T08:59:49;19.97;66.67
67165;SHT31;54093;50.014;19.984;2023-07-31T09:09:12;20.05;66.67
67165;SHT31;54093;50.014;19.984;2023-07-31T09:18:52;20.10;64.41
67165;SHT31;54093;50.014;19.984;2023-07-31T09:28:14;20.10;64.02
67165;SHT31;54093;50.014;19.984;2023-07-31T09:37:35;20.22;64.34
67165;SHT31;54093;50.014;19.984;2023-07-31T09:46:55;20.97;63.22
67165;SHT31;54093;50.014;19.984;2023-07-31T09:56:17;22.03;63.90
67165;SHT31;54093;50.014;19.984;2023-07-31T10:05:46;23.30;57.44
67165;SHT31;54093;50.014;19.984;2023-07-31T10:15:11;24.63;52.50
67165;SHT31;54093;50.014;19.984;2023-07-31T10:24:32;24.91;53.09
67165;SHT31;54093;50.014;19.984;2023-07-31T10:34:12;25.24;51.46
67165;SHT31;54093;50.014;19.984;2023-07-31T10:43:34;25.68;51.37
67165;SHT31;54093;50.014;19.984;2023-07-31T10:52:56;25.99;48.84
67165;SHT31;54093;50.014;19.984;2023-07-31T11:02:25;25.65;46.52
67165;SHT31;54093;50.014;19.984;2023-07-31T11:11:47;25.86;48.04
67165;SHT31;54093;50.014;19.984;2023-07-31T11:21:16;25.69;46.85
67165;SHT31;54093;50.014;19.984;2023-07-31T11:30:39;25.34;47.62
67165;SHT31;54093;50.014;19.984;2023-07-31T11:40:02;24.96;48.72
67165;SHT31;54093;50.014;19.984;2023-07-31T11:49:23;25.55;47.23
67165;SHT31;54093;50.014;19.984;2023-07-31T11:58:46;26.17;44.52
67165;SHT31;54093;50.014;19.984;2023-07-31T12:08:11;26.34;42.40
67165;SHT31;54093;50.014;19.984;2023-07-31T12:17:36;26.79;45.41
67165;SHT31;54093;50.014;19.984;2023-07-31T12:26:57;26.77;42.82
67165;SHT31;54093;50.014;19.984;2023-07-31T12:36:23;26.92;43.04
67165;SHT31;54093;50.014;19.984;2023-07-31T12:45:44;26.48;45.08
67165;SHT31;54093;50.014;19.984;2023-07-31T12:55:06;27.05;44.90
67165;SHT31;54093;50.014;19.984;2023-07-31T13:04:27;27.36;42.99
67165;SHT31;54093;50.014;19.984;2023-07-31T13:13:48;27.46;40.05
67165;SHT31;54093;50.014;19.984;2023-07-31T13:23:09;27.58;41.84
67165;SHT31;54093;50.014;19.984;2023-07-31T13:32:30;27.93;42.83
67165;SHT31;54093;50.014;19.984;2023-07-31T13:41:56;27.84;40.32
67165;SHT31;54093;50.014;19.984;2023-07-31T13:51:33;27.95;40.60
67165;SHT31;54093;50.014;19.984;2023-07-31T14:00:54;28.02;39.15
67165;SHT31;54093;50.014;19.984;2023-07-31T14:10:15;28.00;39.94
67165;SHT31;54093;50.014;19.984;2023-07-31T14:19:36;27.97;38.91
67165;SHT31;54093;50.014;19.984;2023-07-31T14:28:57;27.83;39.16
67165;SHT31;54093;50.014;19.984;2023-07-31T14:38:18;27.67;37.57
67165;SHT31;54093;50.014;19.984;2023-07-31T14:47:39;27.80;38.59
67165;SHT31;54093;50.014;19.984;2023-07-31T14:57:00;27.47;38.60
67165;SHT31;54093;50.014;19.984;2023-07-31T15:06:20;27.30;39.60
67165;SHT31;54093;50.014;19.984;2023-07-31T15:15:41;27.17;38.01
67165;SHT31;54093;50.014;19.984;2023-07-31T15:25:02;26.78;39.84
67165;SHT31;54093;50.014;19.984;2023-07-31T15:34:23;26.50;39.74
67165;SHT31;54093;50.014;19.984;2023-07-31T15:43:45;26.23;42.21
67165;SHT31;54093;50.014;19.984;2023-07-31T15:53:06;25.81;41.78
67165;SHT31;54093;50.014;19.984;2023-07-31T16:02:27;25.42;43.06
67165;SHT31;54093;50.014;19.984;2023-07-31T16:11:48;25.11;43.80
67165;SHT31;54093;50.014;19.984;2023-07-31T16:21:09;24.87;45.01
67165;SHT31;54093;50.014;19.984;2023-07-31T16:30:32;24.70;47.17
67165;SHT31;54093;50.014;19.984;2023-07-31T16:39:53;24.42;47.94
67165;SHT31;54093;50.014;19.984;2023-07-31T16:49:14;24.35;47.70
67165;SHT31;54093;50.014;19.984;2023-07-31T16:58:34;24.07;48.90
67165;SHT31;54093;50.014;19.984;2023-07-31T17:07:55;23.93;50.37
67165;SHT31;54093;50.014;19.984;2023-07-31T17:17:16;23.88;48.53
67165;SHT31;54093;50.014;19.984;2023-07-31T17:26:37;23.70;49.95
67165;SHT31;54093;50.014;19.984;2023-07-31T17:35:58;23.50;49.44
67165;SHT31;54093;50.014;19.984;2023-07-31T17:45:19;23.42;50.21
67165;SHT31;54093;50.014;19.984;2023-07-31T17:54:41;23.33;50.74
67165;SHT31;54093;50.014;19.984;2023-07-31T18:04:02;23.15;53.08
67165;SHT31;54093;50.014;19.984;2023-07-31T18:13:24;22.81;57.69
67165;SHT31;54093;50.014;19.984;2023-07-31T18:22:45;22.48;55.93
67165;SHT31;54093;50.014;19.984;2023-07-31T18:32:06;22.37;57.61
67165;SHT31;54093;50.014;19.984;2023-07-31T18:41:29;22.05;57.57
67165;SHT31;54093;50.014;19.984;2023-07-31T18:50:51;21.85;60.16
67165;SHT31;54093;50.014;19.984;2023-07-31T19:00:12;21.59;61.10
67165;SHT31;54093;50.014;19.984;2023-07-31T19:09:33;21.34;62.16
67165;SHT31;54093;50.014;19.984;2023-07-31T19:18:57;21.10;62.90
67165;SHT31;54093;50.014;19.984;2023-07-31T19:28:18;20.97;63.66
67165;SHT31;54093;50.014;19.984;2023-07-31T19:37:39;20.73;63.95
67165;SHT31;54093;50.014;19.984;2023-07-31T19:47:00;20.42;64.43
67165;SHT31;54093;50.014;19.984;2023-07-31T19:56:21;20.28;64.81
67165;SHT31;54093;50.014;19.984;2023-07-31T20:05:41;20.02;66.11
67165;SHT31;54093;50.014;19.984;2023-07-31T20:15:04;19.85;65.99
67165;SHT31;54093;50.014;19.984;2023-07-31T20:24:25;19.53;66.96
67165;SHT31;54093;50.014;19.984;2023-07-31T20:33:48;19.45;67.21
67165;SHT31;54093;50.014;19.984;2023-07-31T20:43:09;19.57;66.52
67165;SHT31;54093;50.014;19.984;2023-07-31T20:52:36;19.16;67.24
67165;SHT31;54093;50.014;19.984;2023-07-31T21:01:57;19.16;67.07
67165;SHT31;54093;50.014;19.984;2023-07-31T21:11:18;19.09;67.17
67165;SHT31;54093;50.014;19.984;2023-07-31T21:20:39;18.89;68.25
67165;SHT31;54093;50.014;19.984;2023-07-31T21:29:59;18.91;68.24
67165;SHT31;54093;50.014;19.984;2023-07-31T21:39:20;18.68;68.53
67165;SHT31;54093;50.014;19.984;2023-07-31T21:48:41;18.53;68.74
67165;SHT31;54093;50.014;19.984;2023-07-31T21:58:02;18.51;68.44
67165;SHT31;54093;50.014;19.984;2023-07-31T22:07:23;18.32;69.55
67165;SHT31;54093;50.014;19.984;2023-07-31T22:16:44;18.19;69.67
67165;SHT31;54093;50.014;19.984;2023-07-31T22:26:05;18.12;68.62
67165;SHT31;54093;50.014;19.984;2023-07-31T22:35:26;18.23;68.94
67165;SHT31;54093;50.014;19.984;2023-07-31T22:44:47;18.32;69.65
67165;SHT31;54093;50.014;19.984;2023-07-31T22:54:08;18.27;68.54
67165;SHT31;54093;50.014;19.984;2023-07-31T23:03:28;18.33;69.27
67165;SHT31;54093;50.014;19.984;2023-07-31T23:12:49;18.20;69.18
67165;SHT31;54093;50.014;19.984;2023-07-31T23:22:10;18.14;69.35
67165;SHT31;54093;50.014;19.984;2023-07-31T23:31:31;18.08;69.39
67165;SHT31;54093;50.014;19.984;2023-07-31T23:40:52;17.93;69.80
67165;SHT31;54093;50.014;19.984;2023-07-31T23:50:13;17.85;70.47
67165;SHT31;54093;50.014;19.984;2023-07-31T23:59:34;17.82;70.40
